Fox Lake, Wisconsin
Current Conditions -  °F | °C
As of 3:15 PM on Saturday 20 Dec 2014 (Local Time) from KUNU Reporting Station
Haze Haze  
Wind Chill: 29°   Ceiling: 2400
Heat Index: 29°   Visibility: 5mi
Dew Point: 25°   Wind: 3mph
Humidity: 86%   Direction: 170°S
Pressure: 30.23"   Gusts: NA
Location:  43.57°N, 88.91°W
Report Text: KUNU 202115Z AUTO 17003KT 5SM BR OVC024 M02/M04 A3023 RMK AO2 T10161037
Loading
Personal Weather Stations






























Interactive Weather Map New forecast layout! Learn more

10-Day Weather Forecast

Advertisements
Track Severe Weather on mobile